sensor_id;sensor_type;location;lat;lon;timestamp;P1;durP1;ratioP1;P2;durP2;ratioP2
26319;SDS011;14024;52.226;5.200;2022-09-12T00:01:54;21.65;;;13.13;;
26319;SDS011;14024;52.226;5.200;2022-09-12T00:04:20;22.27;;;12.43;;
26319;SDS011;14024;52.226;5.200;2022-09-12T00:06:46;24.83;;;13.18;;
26319;SDS011;14024;52.226;5.200;2022-09-12T00:09:12;19.83;;;12.48;;
26319;SDS011;14024;52.226;5.200;2022-09-12T00:11:39;19.88;;;12.60;;
26319;SDS011;14024;52.226;5.200;2022-09-12T00:14:06;18.23;;;12.02;;
26319;SDS011;14024;52.226;5.200;2022-09-12T00:16:33;15.95;;;11.60;;
26319;SDS011;14024;52.226;5.200;2022-09-12T00:19:00;17.70;;;11.77;;
26319;SDS011;14024;52.226;5.200;2022-09-12T00:21:26;15.98;;;11.18;;
26319;SDS011;14024;52.226;5.200;2022-09-12T00:23:53;19.60;;;12.57;;
26319;SDS011;14024;52.226;5.200;2022-09-12T00:26:19;17.40;;;12.10;;
26319;SDS011;14024;52.226;5.200;2022-09-12T00:28:46;20.35;;;12.00;;
26319;SDS011;14024;52.226;5.200;2022-09-12T00:31:13;22.63;;;12.88;;
26319;SDS011;14024;52.226;5.200;2022-09-12T00:33:39;16.65;;;12.07;;
26319;SDS011;14024;52.226;5.200;2022-09-12T00:36:06;16.95;;;12.23;;
26319;SDS011;14024;52.226;5.200;2022-09-12T00:38:32;20.90;;;12.90;;
26319;SDS011;14024;52.226;5.200;2022-09-12T00:41:02;17.02;;;12.38;;
26319;SDS011;14024;52.226;5.200;2022-09-12T00:45:55;18.30;;;12.30;;
26319;SDS011;14024;52.226;5.200;2022-09-12T00:48:30;21.45;;;13.20;;
26319;SDS011;14024;52.226;5.200;2022-09-12T00:50:57;22.90;;;13.77;;
26319;SDS011;14024;52.226;5.200;2022-09-12T00:53:23;19.85;;;12.55;;
26319;SDS011;14024;52.226;5.200;2022-09-12T00:55:50;23.75;;;14.35;;
26319;SDS011;14024;52.226;5.200;2022-09-12T00:58:24;20.45;;;13.32;;
26319;SDS011;14024;52.226;5.200;2022-09-12T01:00:52;24.98;;;14.82;;
26319;SDS011;14024;52.226;5.200;2022-09-12T01:03:19;25.05;;;16.10;;
26319;SDS011;14024;52.226;5.200;2022-09-12T01:05:51;23.65;;;15.07;;
26319;SDS011;14024;52.226;5.200;2022-09-12T01:08:18;28.25;;;16.08;;
26319;SDS011;14024;52.226;5.200;2022-09-12T01:10:45;23.83;;;15.15;;
26319;SDS011;14024;52.226;5.200;2022-09-12T01:13:11;27.55;;;15.75;;
26319;SDS011;14024;52.226;5.200;2022-09-12T01:15:38;28.42;;;15.75;;
26319;SDS011;14024;52.226;5.200;2022-09-12T01:18:09;31.95;;;19.35;;
26319;SDS011;14024;52.226;5.200;2022-09-12T01:35:44;49.50;;;27.55;;
26319;SDS011;14024;52.226;5.200;2022-09-12T01:38:19;46.90;;;27.75;;
26319;SDS011;14024;52.226;5.200;2022-09-12T01:40:56;47.58;;;27.08;;
26319;SDS011;14024;52.226;5.200;2022-09-12T01:46:01;39.25;;;20.65;;
26319;SDS011;14024;52.226;5.200;2022-09-12T01:48:32;35.28;;;20.33;;
26319;SDS011;14024;52.226;5.200;2022-09-12T01:53:57;31.88;;;19.52;;
26319;SDS011;14024;52.226;5.200;2022-09-12T01:56:25;42.83;;;20.90;;
26319;SDS011;14024;52.226;5.200;2022-09-12T01:59:03;31.90;;;19.38;;
26319;SDS011;14024;52.226;5.200;2022-09-12T02:01:31;35.95;;;19.33;;
26319;SDS011;14024;52.226;5.200;2022-09-12T02:04:09;31.92;;;19.25;;
26319;SDS011;14024;52.226;5.200;2022-09-12T02:06:45;31.02;;;19.10;;
26319;SDS011;14024;52.226;5.200;2022-09-12T02:09:18;29.85;;;18.27;;
26319;SDS011;14024;52.226;5.200;2022-09-12T02:11:45;31.23;;;18.70;;
26319;SDS011;14024;52.226;5.200;2022-09-12T02:14:14;30.80;;;19.33;;
26319;SDS011;14024;52.226;5.200;2022-09-12T02:16:44;41.15;;;24.25;;
26319;SDS011;14024;52.226;5.200;2022-09-12T02:19:15;37.63;;;20.20;;
26319;SDS011;14024;52.226;5.200;2022-09-12T02:21:44;33.47;;;20.17;;
26319;SDS011;14024;52.226;5.200;2022-09-12T02:24:11;36.47;;;21.90;;
26319;SDS011;14024;52.226;5.200;2022-09-12T02:26:46;37.13;;;21.52;;
26319;SDS011;14024;52.226;5.200;2022-09-12T02:29:14;43.30;;;24.35;;
26319;SDS011;14024;52.226;5.200;2022-09-12T02:31:44;38.10;;;22.27;;
26319;SDS011;14024;52.226;5.200;2022-09-12T02:37:21;39.65;;;21.25;;
26319;SDS011;14024;52.226;5.200;2022-09-12T02:39:43;36.90;;;20.75;;
26319;SDS011;14024;52.226;5.200;2022-09-12T02:42:09;38.55;;;22.23;;
26319;SDS011;14024;52.226;5.200;2022-09-12T02:44:35;37.70;;;21.58;;
26319;SDS011;14024;52.226;5.200;2022-09-12T02:47:08;36.55;;;20.80;;
26319;SDS011;14024;52.226;5.200;2022-09-12T02:49:35;40.13;;;22.05;;
26319;SDS011;14024;52.226;5.200;2022-09-12T02:52:01;38.60;;;20.42;;
26319;SDS011;14024;52.226;5.200;2022-09-12T02:54:28;36.97;;;21.77;;
26319;SDS011;14024;52.226;5.200;2022-09-12T02:56:54;36.08;;;19.88;;
26319;SDS011;14024;52.226;5.200;2022-09-12T02:59:20;42.20;;;20.90;;
26319;SDS011;14024;52.226;5.200;2022-09-12T03:04:21;42.83;;;22.55;;
26319;SDS011;14024;52.226;5.200;2022-09-12T03:09:39;36.58;;;21.20;;
26319;SDS011;14024;52.226;5.200;2022-09-12T03:14:59;36.35;;;20.67;;
26319;SDS011;14024;52.226;5.200;2022-09-12T03:17:42;36.58;;;22.45;;
26319;SDS011;14024;52.226;5.200;2022-09-12T03:20:14;37.15;;;21.83;;
26319;SDS011;14024;52.226;5.200;2022-09-12T03:23:02;39.38;;;21.65;;
26319;SDS011;14024;52.226;5.200;2022-09-12T03:25:33;38.35;;;22.13;;
26319;SDS011;14024;52.226;5.200;2022-09-12T03:28:05;34.60;;;20.90;;
26319;SDS011;14024;52.226;5.200;2022-09-12T03:30:39;36.58;;;21.90;;
26319;SDS011;14024;52.226;5.200;2022-09-12T03:33:09;38.13;;;22.05;;
26319;SDS011;14024;52.226;5.200;2022-09-12T03:35:35;39.75;;;20.83;;
26319;SDS011;14024;52.226;5.200;2022-09-12T03:38:01;39.80;;;22.10;;
26319;SDS011;14024;52.226;5.200;2022-09-12T03:40:27;42.20;;;21.83;;
26319;SDS011;14024;52.226;5.200;2022-09-12T03:42:53;35.92;;;20.85;;
26319;SDS011;14024;52.226;5.200;2022-09-12T03:45:19;38.63;;;21.60;;
26319;SDS011;14024;52.226;5.200;2022-09-12T03:47:45;40.97;;;21.90;;
26319;SDS011;14024;52.226;5.200;2022-09-12T03:50:11;37.58;;;20.50;;
26319;SDS011;14024;52.226;5.200;2022-09-12T03:52:37;34.63;;;19.73;;
26319;SDS011;14024;52.226;5.200;2022-09-12T03:55:03;34.28;;;19.33;;
26319;SDS011;14024;52.226;5.200;2022-09-12T03:57:29;36.30;;;20.27;;
26319;SDS011;14024;52.226;5.200;2022-09-12T03:59:56;32.78;;;18.73;;
26319;SDS011;14024;52.226;5.200;2022-09-12T04:02:22;35.28;;;19.50;;
26319;SDS011;14024;52.226;5.200;2022-09-12T04:04:48;36.90;;;20.00;;
26319;SDS011;14024;52.226;5.200;2022-09-12T04:07:14;34.78;;;19.30;;
26319;SDS011;14024;52.226;5.200;2022-09-12T04:09:40;34.97;;;20.95;;
26319;SDS011;14024;52.226;5.200;2022-09-12T04:12:06;34.10;;;18.80;;
26319;SDS011;14024;52.226;5.200;2022-09-12T04:14:32;33.67;;;19.15;;
26319;SDS011;14024;52.226;5.200;2022-09-12T04:16:59;32.75;;;18.05;;
26319;SDS011;14024;52.226;5.200;2022-09-12T04:19:25;32.80;;;18.13;;
26319;SDS011;14024;52.226;5.200;2022-09-12T04:21:51;34.10;;;19.80;;
26319;SDS011;14024;52.226;5.200;2022-09-12T04:24:17;33.70;;;18.83;;
26319;SDS011;14024;52.226;5.200;2022-09-12T04:26:43;38.05;;;19.67;;
26319;SDS011;14024;52.226;5.200;2022-09-12T04:29:12;35.83;;;21.15;;
26319;SDS011;14024;52.226;5.200;2022-09-12T04:31:39;32.60;;;20.10;;
26319;SDS011;14024;52.226;5.200;2022-09-12T04:34:05;37.33;;;20.67;;
26319;SDS011;14024;52.226;5.200;2022-09-12T04:36:32;40.97;;;20.10;;
26319;SDS011;14024;52.226;5.200;2022-09-12T04:38:58;36.17;;;19.98;;
26319;SDS011;14024;52.226;5.200;2022-09-12T04:41:26;34.45;;;19.95;;
26319;SDS011;14024;52.226;5.200;2022-09-12T04:43:53;40.70;;;21.98;;
26319;SDS011;14024;52.226;5.200;2022-09-12T04:46:22;39.72;;;21.10;;
26319;SDS011;14024;52.226;5.200;2022-09-12T04:48:48;41.00;;;23.02;;
26319;SDS011;14024;52.226;5.200;2022-09-12T04:51:16;40.53;;;22.02;;
26319;SDS011;14024;52.226;5.200;2022-09-12T04:53:42;37.28;;;21.90;;
26319;SDS011;14024;52.226;5.200;2022-09-12T04:56:09;41.95;;;24.13;;
26319;SDS011;14024;52.226;5.200;2022-09-12T04:58:36;38.38;;;21.15;;
26319;SDS011;14024;52.226;5.200;2022-09-12T05:01:06;42.22;;;22.73;;
26319;SDS011;14024;52.226;5.200;2022-09-12T05:03:32;40.00;;;22.25;;
26319;SDS011;14024;52.226;5.200;2022-09-12T05:05:58;43.95;;;22.70;;
26319;SDS011;14024;52.226;5.200;2022-09-12T05:08:24;39.85;;;21.30;;
26319;SDS011;14024;52.226;5.200;2022-09-12T05:10:50;39.78;;;24.50;;
26319;SDS011;14024;52.226;5.200;2022-09-12T05:13:16;48.47;;;25.67;;
26319;SDS011;14024;52.226;5.200;2022-09-12T05:15:42;43.95;;;25.30;;
26319;SDS011;14024;52.226;5.200;2022-09-12T05:18:08;50.30;;;25.58;;
26319;SDS011;14024;52.226;5.200;2022-09-12T05:20:34;46.22;;;25.55;;
26319;SDS011;14024;52.226;5.200;2022-09-12T05:23:00;45.60;;;25.63;;
26319;SDS011;14024;52.226;5.200;2022-09-12T05:25:26;49.40;;;26.27;;
26319;SDS011;14024;52.226;5.200;2022-09-12T05:27:52;51.15;;;28.60;;
26319;SDS011;14024;52.226;5.200;2022-09-12T05:30:18;50.65;;;28.15;;
26319;SDS011;14024;52.226;5.200;2022-09-12T05:32:44;55.92;;;28.20;;
26319;SDS011;14024;52.226;5.200;2022-09-12T05:35:10;52.17;;;27.58;;
26319;SDS011;14024;52.226;5.200;2022-09-12T05:37:36;54.83;;;28.88;;
26319;SDS011;14024;52.226;5.200;2022-09-12T05:40:02;51.30;;;25.75;;
26319;SDS011;14024;52.226;5.200;2022-09-12T05:42:31;53.25;;;29.98;;
26319;SDS011;14024;52.226;5.200;2022-09-12T05:44:57;56.53;;;29.75;;
26319;SDS011;14024;52.226;5.200;2022-09-12T05:47:23;51.35;;;27.58;;
26319;SDS011;14024;52.226;5.200;2022-09-12T05:49:49;54.03;;;28.20;;
26319;SDS011;14024;52.226;5.200;2022-09-12T05:52:16;59.65;;;29.30;;
26319;SDS011;14024;52.226;5.200;2022-09-12T05:54:42;47.75;;;28.48;;
26319;SDS011;14024;52.226;5.200;2022-09-12T05:57:08;51.22;;;28.58;;
26319;SDS011;14024;52.226;5.200;2022-09-12T05:59:34;52.95;;;27.38;;
26319;SDS011;14024;52.226;5.200;2022-09-12T06:02:00;54.38;;;27.48;;
26319;SDS011;14024;52.226;5.200;2022-09-12T06:04:26;56.22;;;28.85;;
26319;SDS011;14024;52.226;5.200;2022-09-12T06:06:52;52.38;;;27.90;;
26319;SDS011;14024;52.226;5.200;2022-09-12T06:09:19;54.50;;;29.15;;
26319;SDS011;14024;52.226;5.200;2022-09-12T06:11:45;58.38;;;29.80;;
26319;SDS011;14024;52.226;5.200;2022-09-12T06:14:12;51.60;;;29.02;;
26319;SDS011;14024;52.226;5.200;2022-09-12T06:16:38;54.95;;;28.92;;
26319;SDS011;14024;52.226;5.200;2022-09-12T06:19:17;55.05;;;30.33;;
26319;SDS011;14024;52.226;5.200;2022-09-12T06:21:44;51.28;;;27.75;;
26319;SDS011;14024;52.226;5.200;2022-09-12T06:24:12;63.78;;;32.83;;
26319;SDS011;14024;52.226;5.200;2022-09-12T06:26:38;57.53;;;30.67;;
26319;SDS011;14024;52.226;5.200;2022-09-12T06:29:04;52.40;;;29.20;;
26319;SDS011;14024;52.226;5.200;2022-09-12T06:31:32;60.38;;;31.20;;
26319;SDS011;14024;52.226;5.200;2022-09-12T06:33:59;61.35;;;32.63;;
26319;SDS011;14024;52.226;5.200;2022-09-12T06:36:26;68.85;;;33.45;;
26319;SDS011;14024;52.226;5.200;2022-09-12T06:38:53;61.70;;;32.80;;
26319;SDS011;14024;52.226;5.200;2022-09-12T06:41:20;63.67;;;33.28;;
26319;SDS011;14024;52.226;5.200;2022-09-12T06:43:46;64.95;;;32.08;;
26319;SDS011;14024;52.226;5.200;2022-09-12T06:46:12;63.67;;;31.92;;
26319;SDS011;14024;52.226;5.200;2022-09-12T06:48:38;63.28;;;32.83;;
26319;SDS011;14024;52.226;5.200;2022-09-12T06:51:05;63.70;;;32.67;;
26319;SDS011;14024;52.226;5.200;2022-09-12T06:53:32;63.90;;;31.58;;
26319;SDS011;14024;52.226;5.200;2022-09-12T06:55:59;56.33;;;30.98;;
26319;SDS011;14024;52.226;5.200;2022-09-12T06:58:25;65.72;;;33.13;;
26319;SDS011;14024;52.226;5.200;2022-09-12T07:00:52;64.63;;;32.63;;
26319;SDS011;14024;52.226;5.200;2022-09-12T07:03:18;63.63;;;31.98;;
26319;SDS011;14024;52.226;5.200;2022-09-12T07:05:45;65.93;;;32.72;;
26319;SDS011;14024;52.226;5.200;2022-09-12T07:08:11;61.30;;;31.15;;
26319;SDS011;14024;52.226;5.200;2022-09-12T07:10:37;57.80;;;31.65;;
26319;SDS011;14024;52.226;5.200;2022-09-12T07:13:03;60.97;;;31.33;;
26319;SDS011;14024;52.226;5.200;2022-09-12T07:15:29;58.20;;;31.45;;
26319;SDS011;14024;52.226;5.200;2022-09-12T07:17:55;59.03;;;32.35;;
26319;SDS011;14024;52.226;5.200;2022-09-12T07:20:21;56.42;;;29.30;;
26319;SDS011;14024;52.226;5.200;2022-09-12T07:22:47;56.90;;;32.20;;
26319;SDS011;14024;52.226;5.200;2022-09-12T07:25:13;62.85;;;31.13;;
26319;SDS011;14024;52.226;5.200;2022-09-12T07:27:39;54.40;;;30.77;;
26319;SDS011;14024;52.226;5.200;2022-09-12T07:30:05;53.30;;;29.52;;
26319;SDS011;14024;52.226;5.200;2022-09-12T07:32:31;57.15;;;32.42;;
26319;SDS011;14024;52.226;5.200;2022-09-12T07:34:57;56.10;;;30.23;;
26319;SDS011;14024;52.226;5.200;2022-09-12T07:37:23;55.13;;;30.48;;
26319;SDS011;14024;52.226;5.200;2022-09-12T07:39:49;54.60;;;30.52;;
26319;SDS011;14024;52.226;5.200;2022-09-12T07:42:16;58.42;;;29.88;;
26319;SDS011;14024;52.226;5.200;2022-09-12T07:44:42;54.90;;;29.42;;
26319;SDS011;14024;52.226;5.200;2022-09-12T07:47:08;55.53;;;28.80;;
26319;SDS011;14024;52.226;5.200;2022-09-12T07:49:34;53.03;;;28.23;;
26319;SDS011;14024;52.226;5.200;2022-09-12T07:52:00;52.80;;;26.95;;
26319;SDS011;14024;52.226;5.200;2022-09-12T07:54:28;49.85;;;27.23;;
26319;SDS011;14024;52.226;5.200;2022-09-12T07:56:53;50.08;;;28.15;;
26319;SDS011;14024;52.226;5.200;2022-09-12T07:59:19;48.83;;;26.02;;
26319;SDS011;14024;52.226;5.200;2022-09-12T08:01:45;41.15;;;23.52;;
26319;SDS011;14024;52.226;5.200;2022-09-12T08:04:11;44.55;;;24.88;;
26319;SDS011;14024;52.226;5.200;2022-09-12T08:06:37;43.90;;;24.23;;
26319;SDS011;14024;52.226;5.200;2022-09-12T08:09:03;45.00;;;25.52;;
26319;SDS011;14024;52.226;5.200;2022-09-12T08:11:30;51.83;;;25.42;;
26319;SDS011;14024;52.226;5.200;2022-09-12T08:13:56;44.63;;;24.75;;
26319;SDS011;14024;52.226;5.200;2022-09-12T08:16:23;47.22;;;24.80;;
26319;SDS011;14024;52.226;5.200;2022-09-12T08:18:50;48.33;;;24.85;;
26319;SDS011;14024;52.226;5.200;2022-09-12T08:21:20;37.33;;;22.13;;
26319;SDS011;14024;52.226;5.200;2022-09-12T08:23:46;40.17;;;23.00;;
26319;SDS011;14024;52.226;5.200;2022-09-12T08:26:12;38.10;;;22.48;;
26319;SDS011;14024;52.226;5.200;2022-09-12T08:28:39;32.80;;;18.70;;
26319;SDS011;14024;52.226;5.200;2022-09-12T08:31:10;37.22;;;19.52;;
26319;SDS011;14024;52.226;5.200;2022-09-12T08:33:36;32.63;;;17.70;;
26319;SDS011;14024;52.226;5.200;2022-09-12T08:36:03;31.35;;;17.58;;
26319;SDS011;14024;52.226;5.200;2022-09-12T08:38:29;30.48;;;18.85;;
26319;SDS011;14024;52.226;5.200;2022-09-12T08:41:02;27.48;;;16.77;;
26319;SDS011;14024;52.226;5.200;2022-09-12T08:46:02;30.92;;;18.02;;
26319;SDS011;14024;52.226;5.200;2022-09-12T08:48:29;28.52;;;18.00;;
26319;SDS011;14024;52.226;5.200;2022-09-12T08:50:55;29.83;;;16.30;;
26319;SDS011;14024;52.226;5.200;2022-09-12T08:53:22;28.90;;;15.85;;
26319;SDS011;14024;52.226;5.200;2022-09-12T08:55:55;26.00;;;16.05;;
26319;SDS011;14024;52.226;5.200;2022-09-12T08:58:26;25.42;;;14.38;;
26319;SDS011;14024;52.226;5.200;2022-09-12T09:08:55;22.25;;;14.02;;
26319;SDS011;14024;52.226;5.200;2022-09-12T09:14:03;22.17;;;14.55;;
26319;SDS011;14024;52.226;5.200;2022-09-12T09:19:20;22.92;;;13.73;;
26319;SDS011;14024;52.226;5.200;2022-09-12T09:21:50;22.52;;;13.80;;
26319;SDS011;14024;52.226;5.200;2022-09-12T09:24:20;23.45;;;15.60;;
26319;SDS011;14024;52.226;5.200;2022-09-12T09:26:50;29.50;;;17.65;;
26319;SDS011;14024;52.226;5.200;2022-09-12T09:29:21;27.95;;;16.75;;
26319;SDS011;14024;52.226;5.200;2022-09-12T09:31:51;25.63;;;16.15;;
26319;SDS011;14024;52.226;5.200;2022-09-12T09:34:18;27.38;;;16.20;;
26319;SDS011;14024;52.226;5.200;2022-09-12T09:36:50;28.35;;;18.13;;
26319;SDS011;14024;52.226;5.200;2022-09-12T09:41:51;31.15;;;20.30;;
26319;SDS011;14024;52.226;5.200;2022-09-12T09:44:21;30.50;;;20.25;;
26319;SDS011;14024;52.226;5.200;2022-09-12T09:46:48;34.92;;;20.75;;
26319;SDS011;14024;52.226;5.200;2022-09-12T09:49:17;29.05;;;19.30;;
26319;SDS011;14024;52.226;5.200;2022-09-12T09:51:43;28.35;;;17.95;;
26319;SDS011;14024;52.226;5.200;2022-09-12T09:54:22;28.83;;;18.00;;
26319;SDS011;14024;52.226;5.200;2022-09-12T09:56:49;29.98;;;19.33;;
26319;SDS011;14024;52.226;5.200;2022-09-12T09:59:26;28.83;;;17.83;;
26319;SDS011;14024;52.226;5.200;2022-09-12T10:01:53;29.90;;;19.08;;
26319;SDS011;14024;52.226;5.200;2022-09-12T10:04:21;29.25;;;18.48;;
26319;SDS011;14024;52.226;5.200;2022-09-12T10:06:51;31.33;;;19.52;;
26319;SDS011;14024;52.226;5.200;2022-09-12T10:11:44;39.45;;;20.58;;
26319;SDS011;14024;52.226;5.200;2022-09-12T10:14:24;31.58;;;19.88;;
26319;SDS011;14024;52.226;5.200;2022-09-12T10:16:51;26.25;;;17.67;;
26319;SDS011;14024;52.226;5.200;2022-09-12T10:19:22;27.85;;;17.23;;
26319;SDS011;14024;52.226;5.200;2022-09-12T10:21:52;28.05;;;15.77;;
26319;SDS011;14024;52.226;5.200;2022-09-12T10:24:26;21.67;;;15.23;;
26319;SDS011;14024;52.226;5.200;2022-09-12T10:32:10;24.35;;;16.42;;
26319;SDS011;14024;52.226;5.200;2022-09-12T10:37:07;27.42;;;15.13;;
26319;SDS011;14024;52.226;5.200;2022-09-12T10:39:34;19.90;;;13.45;;
26319;SDS011;14024;52.226;5.200;2022-09-12T10:42:02;20.08;;;13.40;;
26319;SDS011;14024;52.226;5.200;2022-09-12T10:44:30;20.95;;;13.45;;
26319;SDS011;14024;52.226;5.200;2022-09-12T10:46:56;18.23;;;13.48;;
26319;SDS011;14024;52.226;5.200;2022-09-12T10:49:27;17.83;;;10.90;;
26319;SDS011;14024;52.226;5.200;2022-09-12T10:51:53;15.65;;;10.95;;
26319;SDS011;14024;52.226;5.200;2022-09-12T10:54:24;22.70;;;11.10;;
26319;SDS011;14024;52.226;5.200;2022-09-12T10:56:58;21.05;;;11.48;;
26319;SDS011;14024;52.226;5.200;2022-09-12T11:01:59;15.82;;;11.07;;
26319;SDS011;14024;52.226;5.200;2022-09-12T11:07:18;16.85;;;11.13;;
26319;SDS011;14024;52.226;5.200;2022-09-12T11:12:31;14.32;;;10.68;;
26319;SDS011;14024;52.226;5.200;2022-09-12T11:15:06;12.45;;;9.30;;
26319;SDS011;14024;52.226;5.200;2022-09-12T11:22:42;15.05;;;8.73;;
26319;SDS011;14024;52.226;5.200;2022-09-12T11:25:20;13.35;;;9.15;;
26319;SDS011;14024;52.226;5.200;2022-09-12T11:30:36;11.65;;;8.95;;
26319;SDS011;14024;52.226;5.200;2022-09-12T11:33:25;13.88;;;9.60;;
26319;SDS011;14024;52.226;5.200;2022-09-12T11:35:54;14.18;;;9.57;;
26319;SDS011;14024;52.226;5.200;2022-09-12T11:38:31;11.45;;;9.18;;
26319;SDS011;14024;52.226;5.200;2022-09-12T11:41:04;15.57;;;9.95;;
26319;SDS011;14024;52.226;5.200;2022-09-12T11:43:34;11.57;;;9.00;;
26319;SDS011;14024;52.226;5.200;2022-09-12T11:46:15;10.90;;;7.90;;
26319;SDS011;14024;52.226;5.200;2022-09-12T11:51:25;8.80;;;6.63;;
26319;SDS011;14024;52.226;5.200;2022-09-12T11:56:41;10.30;;;6.45;;
26319;SDS011;14024;52.226;5.200;2022-09-12T11:59:31;11.07;;;7.53;;
26319;SDS011;14024;52.226;5.200;2022-09-12T12:01:56;9.40;;;6.40;;
26319;SDS011;14024;52.226;5.200;2022-09-12T12:04:24;12.02;;;6.70;;
26319;SDS011;14024;52.226;5.200;2022-09-12T12:06:55;7.82;;;5.75;;
26319;SDS011;14024;52.226;5.200;2022-09-12T12:09:22;11.45;;;7.50;;
26319;SDS011;14024;52.226;5.200;2022-09-12T12:11:49;8.95;;;6.10;;
26319;SDS011;14024;52.226;5.200;2022-09-12T12:14:26;9.20;;;5.40;;
26319;SDS011;14024;52.226;5.200;2022-09-12T12:16:54;7.20;;;5.10;;
26319;SDS011;14024;52.226;5.200;2022-09-12T12:19:31;7.47;;;5.22;;
26319;SDS011;14024;52.226;5.200;2022-09-12T12:22:05;6.38;;;4.88;;
26319;SDS011;14024;52.226;5.200;2022-09-12T12:24:31;9.45;;;4.90;;
26319;SDS011;14024;52.226;5.200;2022-09-12T12:27:02;6.57;;;5.13;;
26319;SDS011;14024;52.226;5.200;2022-09-12T12:29:41;6.60;;;5.03;;
26319;SDS011;14024;52.226;5.200;2022-09-12T12:34:34;13.65;;;5.13;;
26319;SDS011;14024;52.226;5.200;2022-09-12T12:44:57;9.63;;;6.05;;
26319;SDS011;14024;52.226;5.200;2022-09-12T12:47:24;7.68;;;5.43;;
26319;SDS011;14024;52.226;5.200;2022-09-12T12:49:56;8.50;;;6.30;;
26319;SDS011;14024;52.226;5.200;2022-09-12T12:52:24;5.43;;;4.88;;
26319;SDS011;14024;52.226;5.200;2022-09-12T12:54:54;8.07;;;5.80;;
26319;SDS011;14024;52.226;5.200;2022-09-12T12:57:33;8.20;;;5.80;;
26319;SDS011;14024;52.226;5.200;2022-09-12T13:00:24;10.00;;;5.10;;
26319;SDS011;14024;52.226;5.200;2022-09-12T13:06:04;7.93;;;5.22;;
26319;SDS011;14024;52.226;5.200;2022-09-12T13:13:52;6.90;;;5.45;;
26319;SDS011;14024;52.226;5.200;2022-09-12T13:16:35;7.88;;;6.15;;
26319;SDS011;14024;52.226;5.200;2022-09-12T13:19:02;8.60;;;7.07;;
26319;SDS011;14024;52.226;5.200;2022-09-12T13:21:30;8.43;;;6.95;;
26319;SDS011;14024;52.226;5.200;2022-09-12T13:23:59;10.23;;;6.53;;
26319;SDS011;14024;52.226;5.200;2022-09-12T13:26:27;7.35;;;5.57;;
26319;SDS011;14024;52.226;5.200;2022-09-12T13:29:14;7.32;;;5.90;;
26319;SDS011;14024;52.226;5.200;2022-09-12T13:31:41;8.68;;;5.47;;
26319;SDS011;14024;52.226;5.200;2022-09-12T13:34:08;8.48;;;4.80;;
26319;SDS011;14024;52.226;5.200;2022-09-12T13:44:00;11.23;;;5.10;;
26319;SDS011;14024;52.226;5.200;2022-09-12T13:46:29;5.85;;;4.57;;
26319;SDS011;14024;52.226;5.200;2022-09-12T13:48:57;7.07;;;4.40;;
26319;SDS011;14024;52.226;5.200;2022-09-12T13:51:28;6.65;;;4.80;;
26319;SDS011;14024;52.226;5.200;2022-09-12T13:53:56;8.05;;;4.80;;
26319;SDS011;14024;52.226;5.200;2022-09-12T13:56:22;8.20;;;5.15;;
26319;SDS011;14024;52.226;5.200;2022-09-12T14:01:18;8.23;;;5.03;;
26319;SDS011;14024;52.226;5.200;2022-09-12T14:03:52;5.45;;;4.88;;
26319;SDS011;14024;52.226;5.200;2022-09-12T14:06:44;8.70;;;4.97;;
26319;SDS011;14024;52.226;5.200;2022-09-12T14:09:19;7.38;;;4.93;;
26319;SDS011;14024;52.226;5.200;2022-09-12T14:11:47;7.53;;;5.43;;
26319;SDS011;14024;52.226;5.200;2022-09-12T14:14:37;5.63;;;4.70;;
26319;SDS011;14024;52.226;5.200;2022-09-12T14:19:55;6.15;;;4.43;;
26319;SDS011;14024;52.226;5.200;2022-09-12T14:22:27;5.00;;;4.45;;
26319;SDS011;14024;52.226;5.200;2022-09-12T14:24:53;9.23;;;5.47;;
26319;SDS011;14024;52.226;5.200;2022-09-12T14:27:26;6.18;;;4.63;;
26319;SDS011;14024;52.226;5.200;2022-09-12T14:30:02;5.30;;;4.28;;
26319;SDS011;14024;52.226;5.200;2022-09-12T14:32:30;7.50;;;4.30;;
26319;SDS011;14024;52.226;5.200;2022-09-12T14:37:42;6.72;;;4.53;;
26319;SDS011;14024;52.226;5.200;2022-09-12T14:40:14;9.43;;;4.38;;
26319;SDS011;14024;52.226;5.200;2022-09-12T14:42:40;5.38;;;4.35;;
26319;SDS011;14024;52.226;5.200;2022-09-12T14:45:14;6.45;;;4.38;;
26319;SDS011;14024;52.226;5.200;2022-09-12T14:47:41;7.90;;;4.78;;
26319;SDS011;14024;52.226;5.200;2022-09-12T14:50:14;5.03;;;4.45;;
26319;SDS011;14024;52.226;5.200;2022-09-12T14:52:41;6.30;;;4.00;;
26319;SDS011;14024;52.226;5.200;2022-09-12T14:57:40;6.35;;;4.60;;
26319;SDS011;14024;52.226;5.200;2022-09-12T15:00:14;6.80;;;4.90;;
26319;SDS011;14024;52.226;5.200;2022-09-12T15:02:44;8.40;;;5.10;;
26319;SDS011;14024;52.226;5.200;2022-09-12T15:07:43;5.43;;;4.32;;
26319;SDS011;14024;52.226;5.200;2022-09-12T15:10:44;5.45;;;4.72;;
26319;SDS011;14024;52.226;5.200;2022-09-12T15:15:30;6.93;;;4.28;;
26319;SDS011;14024;52.226;5.200;2022-09-12T15:17:56;10.73;;;4.50;;
26319;SDS011;14024;52.226;5.200;2022-09-12T15:20:22;5.35;;;4.43;;
26319;SDS011;14024;52.226;5.200;2022-09-12T15:22:49;5.57;;;4.13;;
26319;SDS011;14024;52.226;5.200;2022-09-12T15:25:15;4.75;;;3.97;;
26319;SDS011;14024;52.226;5.200;2022-09-12T15:27:41;7.25;;;4.07;;
26319;SDS011;14024;52.226;5.200;2022-09-12T15:30:08;8.32;;;4.20;;
26319;SDS011;14024;52.226;5.200;2022-09-12T15:32:34;5.20;;;4.22;;
26319;SDS011;14024;52.226;5.200;2022-09-12T15:35:00;6.60;;;3.90;;
26319;SDS011;14024;52.226;5.200;2022-09-12T15:37:26;5.80;;;4.40;;
26319;SDS011;14024;52.226;5.200;2022-09-12T15:39:53;6.93;;;4.28;;
26319;SDS011;14024;52.226;5.200;2022-09-12T15:42:23;5.63;;;4.28;;
26319;SDS011;14024;52.226;5.200;2022-09-12T15:44:51;5.63;;;4.60;;
26319;SDS011;14024;52.226;5.200;2022-09-12T15:47:17;4.53;;;4.13;;
26319;SDS011;14024;52.226;5.200;2022-09-12T15:49:43;5.15;;;4.43;;
26319;SDS011;14024;52.226;5.200;2022-09-12T15:52:12;6.40;;;3.58;;
26319;SDS011;14024;52.226;5.200;2022-09-12T15:54:38;6.30;;;4.00;;
26319;SDS011;14024;52.226;5.200;2022-09-12T15:57:05;7.00;;;4.35;;
26319;SDS011;14024;52.226;5.200;2022-09-12T15:59:31;6.00;;;4.50;;
26319;SDS011;14024;52.226;5.200;2022-09-12T16:01:57;6.03;;;3.70;;
26319;SDS011;14024;52.226;5.200;2022-09-12T16:04:23;7.07;;;4.05;;
26319;SDS011;14024;52.226;5.200;2022-09-12T16:06:50;5.78;;;4.18;;
26319;SDS011;14024;52.226;5.200;2022-09-12T16:09:16;7.88;;;4.03;;
26319;SDS011;14024;52.226;5.200;2022-09-12T16:11:42;5.70;;;4.50;;
26319;SDS011;14024;52.226;5.200;2022-09-12T16:14:15;5.68;;;4.20;;
26319;SDS011;14024;52.226;5.200;2022-09-12T16:16:42;5.38;;;4.43;;
26319;SDS011;14024;52.226;5.200;2022-09-12T16:19:08;5.85;;;4.60;;
26319;SDS011;14024;52.226;5.200;2022-09-12T16:21:36;7.15;;;4.05;;
26319;SDS011;14024;52.226;5.200;2022-09-12T16:24:02;8.23;;;4.65;;
26319;SDS011;14024;52.226;5.200;2022-09-12T16:26:28;10.65;;;4.43;;
26319;SDS011;14024;52.226;5.200;2022-09-12T16:28:57;5.78;;;4.63;;
26319;SDS011;14024;52.226;5.200;2022-09-12T16:31:24;7.13;;;4.47;;
26319;SDS011;14024;52.226;5.200;2022-09-12T16:33:50;7.07;;;4.03;;
26319;SDS011;14024;52.226;5.200;2022-09-12T16:36:17;5.43;;;4.57;;
26319;SDS011;14024;52.226;5.200;2022-09-12T16:38:44;8.02;;;5.00;;
26319;SDS011;14024;52.226;5.200;2022-09-12T16:41:10;7.93;;;4.78;;
26319;SDS011;14024;52.226;5.200;2022-09-12T16:43:37;5.25;;;4.63;;